sensor_id;sensor_type;location;lat;lon;timestamp;P1;durP1;ratioP1;P2;durP2;ratioP2
51006;SDS011;37034;47.886;-3.904;2022-09-09T00:00:37;27.00;;;4.65;;
51006;SDS011;37034;47.886;-3.904;2022-09-09T00:03:10;28.13;;;3.28;;
51006;SDS011;37034;47.886;-3.904;2022-09-09T00:05:51;25.55;;;3.90;;
51006;SDS011;37034;47.886;-3.904;2022-09-09T00:08:57;22.67;;;3.55;;
51006;SDS011;37034;47.886;-3.904;2022-09-09T00:12:10;28.92;;;3.67;;
51006;SDS011;37034;47.886;-3.904;2022-09-09T00:17:09;29.42;;;4.03;;
51006;SDS011;37034;47.886;-3.904;2022-09-09T00:19:50;32.92;;;3.60;;
51006;SDS011;37034;47.886;-3.904;2022-09-09T00:22:25;25.77;;;3.60;;
51006;SDS011;37034;47.886;-3.904;2022-09-09T00:24:56;23.52;;;4.47;;
51006;SDS011;37034;47.886;-3.904;2022-09-09T00:30:15;22.48;;;3.97;;
51006;SDS011;37034;47.886;-3.904;2022-09-09T00:32:48;27.63;;;4.22;;
51006;SDS011;37034;47.886;-3.904;2022-09-09T00:37:51;26.25;;;3.65;;
51006;SDS011;37034;47.886;-3.904;2022-09-09T00:40:32;33.78;;;4.88;;
51006;SDS011;37034;47.886;-3.904;2022-09-09T00:43:20;19.55;;;3.80;;
51006;SDS011;37034;47.886;-3.904;2022-09-09T00:51:15;28.33;;;4.05;;
51006;SDS011;37034;47.886;-3.904;2022-09-09T00:56:37;27.50;;;3.28;;
51006;SDS011;37034;47.886;-3.904;2022-09-09T00:59:44;26.20;;;3.30;;
51006;SDS011;37034;47.886;-3.904;2022-09-09T01:05:20;26.77;;;3.88;;
51006;SDS011;37034;47.886;-3.904;2022-09-09T01:07:51;25.42;;;4.00;;
51006;SDS011;37034;47.886;-3.904;2022-09-09T01:10:29;25.30;;;4.27;;
51006;SDS011;37034;47.886;-3.904;2022-09-09T01:13:52;30.83;;;4.18;;
51006;SDS011;37034;47.886;-3.904;2022-09-09T01:16:11;22.25;;;3.70;;
51006;SDS011;37034;47.886;-3.904;2022-09-09T01:18:43;26.88;;;4.13;;
51006;SDS011;37034;47.886;-3.904;2022-09-09T01:26:43;25.35;;;4.28;;
51006;SDS011;37034;47.886;-3.904;2022-09-09T01:29:12;22.63;;;3.17;;
51006;SDS011;37034;47.886;-3.904;2022-09-09T01:31:51;23.67;;;2.97;;
51006;SDS011;37034;47.886;-3.904;2022-09-09T01:34:17;26.02;;;3.83;;
51006;SDS011;37034;47.886;-3.904;2022-09-09T01:36:52;26.38;;;3.72;;
51006;SDS011;37034;47.886;-3.904;2022-09-09T01:39:18;26.13;;;3.60;;
51006;SDS011;37034;47.886;-3.904;2022-09-09T01:41:45;28.50;;;4.28;;
51006;SDS011;37034;47.886;-3.904;2022-09-09T01:44:11;23.23;;;3.80;;
51006;SDS011;37034;47.886;-3.904;2022-09-09T01:46:37;28.13;;;3.80;;
51006;SDS011;37034;47.886;-3.904;2022-09-09T01:49:03;26.85;;;3.92;;
51006;SDS011;37034;47.886;-3.904;2022-09-09T01:51:32;23.23;;;4.10;;
51006;SDS011;37034;47.886;-3.904;2022-09-09T01:53:58;27.80;;;3.67;;
51006;SDS011;37034;47.886;-3.904;2022-09-09T01:56:40;20.85;;;4.22;;
51006;SDS011;37034;47.886;-3.904;2022-09-09T02:08:13;26.63;;;4.25;;
51006;SDS011;37034;47.886;-3.904;2022-09-09T02:13:40;21.55;;;3.50;;
51006;SDS011;37034;47.886;-3.904;2022-09-09T02:18:51;26.48;;;3.67;;
51006;SDS011;37034;47.886;-3.904;2022-09-09T02:21:26;25.52;;;3.72;;
51006;SDS011;37034;47.886;-3.904;2022-09-09T02:23:54;31.77;;;4.22;;
51006;SDS011;37034;47.886;-3.904;2022-09-09T02:26:22;32.60;;;3.63;;
51006;SDS011;37034;47.886;-3.904;2022-09-09T02:28:50;27.10;;;4.22;;
51006;SDS011;37034;47.886;-3.904;2022-09-09T02:31:21;26.10;;;3.95;;
51006;SDS011;37034;47.886;-3.904;2022-09-09T02:33:53;27.92;;;3.85;;
51006;SDS011;37034;47.886;-3.904;2022-09-09T02:36:22;22.60;;;3.35;;
51006;SDS011;37034;47.886;-3.904;2022-09-09T02:38:51;27.70;;;3.97;;
51006;SDS011;37034;47.886;-3.904;2022-09-09T02:41:32;22.73;;;3.30;;
51006;SDS011;37034;47.886;-3.904;2022-09-09T02:43:59;17.50;;;3.13;;
51006;SDS011;37034;47.886;-3.904;2022-09-09T02:54:33;19.48;;;3.35;;
51006;SDS011;37034;47.886;-3.904;2022-09-09T02:57:08;19.77;;;3.20;;
51006;SDS011;37034;47.886;-3.904;2022-09-09T02:59:41;17.17;;;3.38;;
51006;SDS011;37034;47.886;-3.904;2022-09-09T03:02:09;17.75;;;2.90;;
51006;SDS011;37034;47.886;-3.904;2022-09-09T03:04:36;20.58;;;2.83;;
51006;SDS011;37034;47.886;-3.904;2022-09-09T03:07:03;19.77;;;2.65;;
51006;SDS011;37034;47.886;-3.904;2022-09-09T03:09:29;26.00;;;3.78;;
51006;SDS011;37034;47.886;-3.904;2022-09-09T03:11:55;25.50;;;3.55;;
51006;SDS011;37034;47.886;-3.904;2022-09-09T03:14:21;32.90;;;3.72;;
51006;SDS011;37034;47.886;-3.904;2022-09-09T03:16:50;26.70;;;3.65;;
51006;SDS011;37034;47.886;-3.904;2022-09-09T03:19:17;29.45;;;4.38;;
51006;SDS011;37034;47.886;-3.904;2022-09-09T03:21:43;26.83;;;3.85;;
51006;SDS011;37034;47.886;-3.904;2022-09-09T03:24:10;24.92;;;3.75;;
51006;SDS011;37034;47.886;-3.904;2022-09-09T03:26:36;21.10;;;3.33;;
51006;SDS011;37034;47.886;-3.904;2022-09-09T03:29:03;27.90;;;4.30;;
51006;SDS011;37034;47.886;-3.904;2022-09-09T03:31:31;29.90;;;4.03;;
51006;SDS011;37034;47.886;-3.904;2022-09-09T03:33:57;31.35;;;4.15;;
51006;SDS011;37034;47.886;-3.904;2022-09-09T03:36:24;25.67;;;3.90;;
51006;SDS011;37034;47.886;-3.904;2022-09-09T03:38:51;25.70;;;4.43;;
51006;SDS011;37034;47.886;-3.904;2022-09-09T03:41:17;26.60;;;3.97;;
51006;SDS011;37034;47.886;-3.904;2022-09-09T03:43:43;25.55;;;3.88;;
51006;SDS011;37034;47.886;-3.904;2022-09-09T03:46:09;18.17;;;2.83;;
51006;SDS011;37034;47.886;-3.904;2022-09-09T03:48:35;23.25;;;3.63;;
51006;SDS011;37034;47.886;-3.904;2022-09-09T03:51:00;20.17;;;3.67;;
51006;SDS011;37034;47.886;-3.904;2022-09-09T03:53:27;32.15;;;4.45;;
51006;SDS011;37034;47.886;-3.904;2022-09-09T03:55:54;26.88;;;4.07;;
51006;SDS011;37034;47.886;-3.904;2022-09-09T03:58:22;25.42;;;3.42;;
51006;SDS011;37034;47.886;-3.904;2022-09-09T04:00:52;22.75;;;3.80;;
51006;SDS011;37034;47.886;-3.904;2022-09-09T04:03:19;24.67;;;3.67;;
51006;SDS011;37034;47.886;-3.904;2022-09-09T04:05:48;29.10;;;3.63;;
51006;SDS011;37034;47.886;-3.904;2022-09-09T04:08:14;31.17;;;3.78;;
51006;SDS011;37034;47.886;-3.904;2022-09-09T04:10:39;29.30;;;4.50;;
51006;SDS011;37034;47.886;-3.904;2022-09-09T04:13:06;30.67;;;5.00;;
51006;SDS011;37034;47.886;-3.904;2022-09-09T04:15:32;25.17;;;3.78;;
51006;SDS011;37034;47.886;-3.904;2022-09-09T04:17:59;23.83;;;3.80;;
51006;SDS011;37034;47.886;-3.904;2022-09-09T04:20:25;29.90;;;3.60;;
51006;SDS011;37034;47.886;-3.904;2022-09-09T04:22:51;30.15;;;4.85;;
51006;SDS011;37034;47.886;-3.904;2022-09-09T04:25:16;24.50;;;3.83;;
51006;SDS011;37034;47.886;-3.904;2022-09-09T04:27:42;26.30;;;3.30;;
51006;SDS011;37034;47.886;-3.904;2022-09-09T04:30:08;26.10;;;3.47;;
51006;SDS011;37034;47.886;-3.904;2022-09-09T04:32:35;22.15;;;3.58;;
51006;SDS011;37034;47.886;-3.904;2022-09-09T04:35:02;27.38;;;4.10;;
51006;SDS011;37034;47.886;-3.904;2022-09-09T04:37:28;30.33;;;4.43;;
51006;SDS011;37034;47.886;-3.904;2022-09-09T04:39:53;36.13;;;4.83;;
51006;SDS011;37034;47.886;-3.904;2022-09-09T04:42:19;28.97;;;3.90;;
51006;SDS011;37034;47.886;-3.904;2022-09-09T04:44:45;24.70;;;3.75;;
51006;SDS011;37034;47.886;-3.904;2022-09-09T04:47:11;28.63;;;3.53;;
51006;SDS011;37034;47.886;-3.904;2022-09-09T04:49:36;25.83;;;3.95;;
51006;SDS011;37034;47.886;-3.904;2022-09-09T04:52:03;27.58;;;4.60;;
51006;SDS011;37034;47.886;-3.904;2022-09-09T04:54:29;31.88;;;3.90;;
51006;SDS011;37034;47.886;-3.904;2022-09-09T04:56:55;25.45;;;3.47;;
51006;SDS011;37034;47.886;-3.904;2022-09-09T04:59:21;27.40;;;3.70;;
51006;SDS011;37034;47.886;-3.904;2022-09-09T05:01:47;31.17;;;4.30;;
51006;SDS011;37034;47.886;-3.904;2022-09-09T05:04:15;27.17;;;4.20;;
51006;SDS011;37034;47.886;-3.904;2022-09-09T05:06:41;28.40;;;3.45;;
51006;SDS011;37034;47.886;-3.904;2022-09-09T05:09:07;26.30;;;4.18;;
51006;SDS011;37034;47.886;-3.904;2022-09-09T05:11:33;22.38;;;3.63;;
51006;SDS011;37034;47.886;-3.904;2022-09-09T05:14:01;26.20;;;3.92;;
51006;SDS011;37034;47.886;-3.904;2022-09-09T05:16:28;31.35;;;3.53;;
51006;SDS011;37034;47.886;-3.904;2022-09-09T05:18:55;26.92;;;4.53;;
51006;SDS011;37034;47.886;-3.904;2022-09-09T05:21:21;26.35;;;3.75;;
51006;SDS011;37034;47.886;-3.904;2022-09-09T05:23:48;27.13;;;4.03;;
51006;SDS011;37034;47.886;-3.904;2022-09-09T05:26:15;21.88;;;3.30;;
51006;SDS011;37034;47.886;-3.904;2022-09-09T05:28:43;19.60;;;3.30;;
51006;SDS011;37034;47.886;-3.904;2022-09-09T05:31:10;31.67;;;4.32;;
51006;SDS011;37034;47.886;-3.904;2022-09-09T05:33:37;25.40;;;3.42;;
51006;SDS011;37034;47.886;-3.904;2022-09-09T05:36:26;23.55;;;3.42;;
51006;SDS011;37034;47.886;-3.904;2022-09-09T05:38:51;23.63;;;3.90;;
51006;SDS011;37034;47.886;-3.904;2022-09-09T05:41:20;30.60;;;3.88;;
51006;SDS011;37034;47.886;-3.904;2022-09-09T05:43:47;24.15;;;3.90;;
51006;SDS011;37034;47.886;-3.904;2022-09-09T05:46:15;22.02;;;3.30;;
51006;SDS011;37034;47.886;-3.904;2022-09-09T05:48:46;27.95;;;3.70;;
51006;SDS011;37034;47.886;-3.904;2022-09-09T05:51:14;23.65;;;3.45;;
51006;SDS011;37034;47.886;-3.904;2022-09-09T05:53:42;27.42;;;3.38;;
51006;SDS011;37034;47.886;-3.904;2022-09-09T05:56:13;21.55;;;4.05;;
51006;SDS011;37034;47.886;-3.904;2022-09-09T05:58:40;28.35;;;3.53;;
51006;SDS011;37034;47.886;-3.904;2022-09-09T06:01:11;29.45;;;3.88;;
51006;SDS011;37034;47.886;-3.904;2022-09-09T06:03:41;32.75;;;4.75;;
51006;SDS011;37034;47.886;-3.904;2022-09-09T06:06:09;25.73;;;3.33;;
51006;SDS011;37034;47.886;-3.904;2022-09-09T06:08:40;30.02;;;4.18;;
51006;SDS011;37034;47.886;-3.904;2022-09-09T06:11:09;28.38;;;3.60;;
51006;SDS011;37034;47.886;-3.904;2022-09-09T06:13:37;24.33;;;4.20;;
51006;SDS011;37034;47.886;-3.904;2022-09-09T06:16:05;25.55;;;3.05;;
51006;SDS011;37034;47.886;-3.904;2022-09-09T06:18:33;25.92;;;4.22;;
51006;SDS011;37034;47.886;-3.904;2022-09-09T06:23:26;29.40;;;4.32;;
51006;SDS011;37034;47.886;-3.904;2022-09-09T06:26:06;30.25;;;4.30;;
51006;SDS011;37034;47.886;-3.904;2022-09-09T06:28:34;22.42;;;2.83;;
51006;SDS011;37034;47.886;-3.904;2022-09-09T06:31:02;22.63;;;3.88;;
51006;SDS011;37034;47.886;-3.904;2022-09-09T06:33:33;20.75;;;3.03;;
51006;SDS011;37034;47.886;-3.904;2022-09-09T06:36:01;23.02;;;3.72;;
51006;SDS011;37034;47.886;-3.904;2022-09-09T06:38:28;34.10;;;4.20;;
51006;SDS011;37034;47.886;-3.904;2022-09-09T06:40:54;18.98;;;2.85;;
51006;SDS011;37034;47.886;-3.904;2022-09-09T06:43:22;20.13;;;3.25;;
51006;SDS011;37034;47.886;-3.904;2022-09-09T06:48:20;20.90;;;3.50;;
51006;SDS011;37034;47.886;-3.904;2022-09-09T06:50:46;29.48;;;3.92;;
51006;SDS011;37034;47.886;-3.904;2022-09-09T06:53:12;26.65;;;3.78;;
51006;SDS011;37034;47.886;-3.904;2022-09-09T06:55:41;20.67;;;2.92;;
51006;SDS011;37034;47.886;-3.904;2022-09-09T06:58:09;27.10;;;4.60;;
51006;SDS011;37034;47.886;-3.904;2022-09-09T07:00:34;21.33;;;3.30;;
51006;SDS011;37034;47.886;-3.904;2022-09-09T07:03:02;25.88;;;3.55;;
51006;SDS011;37034;47.886;-3.904;2022-09-09T07:05:28;20.30;;;2.95;;
51006;SDS011;37034;47.886;-3.904;2022-09-09T07:07:54;22.23;;;3.10;;
51006;SDS011;37034;47.886;-3.904;2022-09-09T07:10:19;22.77;;;3.45;;
51006;SDS011;37034;47.886;-3.904;2022-09-09T07:12:49;23.97;;;3.50;;
51006;SDS011;37034;47.886;-3.904;2022-09-09T07:15:18;26.45;;;3.60;;
51006;SDS011;37034;47.886;-3.904;2022-09-09T07:17:44;22.63;;;3.65;;
51006;SDS011;37034;47.886;-3.904;2022-09-09T07:20:10;19.13;;;3.65;;
51006;SDS011;37034;47.886;-3.904;2022-09-09T07:22:37;23.80;;;2.90;;
51006;SDS011;37034;47.886;-3.904;2022-09-09T07:25:03;23.77;;;3.33;;
51006;SDS011;37034;47.886;-3.904;2022-09-09T07:27:29;26.17;;;3.42;;
51006;SDS011;37034;47.886;-3.904;2022-09-09T07:29:55;17.30;;;3.13;;
51006;SDS011;37034;47.886;-3.904;2022-09-09T07:32:20;29.05;;;3.13;;
51006;SDS011;37034;47.886;-3.904;2022-09-09T07:34:46;24.40;;;3.60;;
51006;SDS011;37034;47.886;-3.904;2022-09-09T07:37:12;20.02;;;2.80;;
51006;SDS011;37034;47.886;-3.904;2022-09-09T07:39:38;28.10;;;3.67;;
51006;SDS011;37034;47.886;-3.904;2022-09-09T07:44:30;18.77;;;2.25;;
51006;SDS011;37034;47.886;-3.904;2022-09-09T07:47:00;21.00;;;2.80;;
51006;SDS011;37034;47.886;-3.904;2022-09-09T07:49:26;16.48;;;3.13;;
51006;SDS011;37034;47.886;-3.904;2022-09-09T07:51:52;21.10;;;2.47;;
51006;SDS011;37034;47.886;-3.904;2022-09-09T07:54:18;13.52;;;2.88;;
51006;SDS011;37034;47.886;-3.904;2022-09-09T07:56:45;23.10;;;4.20;;
51006;SDS011;37034;47.886;-3.904;2022-09-09T07:59:11;15.43;;;2.60;;
51006;SDS011;37034;47.886;-3.904;2022-09-09T08:01:42;24.38;;;3.38;;
51006;SDS011;37034;47.886;-3.904;2022-09-09T08:04:11;19.23;;;2.75;;
51006;SDS011;37034;47.886;-3.904;2022-09-09T08:06:42;16.60;;;3.00;;
51006;SDS011;37034;47.886;-3.904;2022-09-09T08:09:11;13.70;;;2.38;;
51006;SDS011;37034;47.886;-3.904;2022-09-09T08:11:38;21.70;;;3.13;;
51006;SDS011;37034;47.886;-3.904;2022-09-09T08:14:04;19.02;;;2.85;;
51006;SDS011;37034;47.886;-3.904;2022-09-09T08:16:33;20.63;;;2.42;;
51006;SDS011;37034;47.886;-3.904;2022-09-09T08:19:01;18.63;;;2.60;;
51006;SDS011;37034;47.886;-3.904;2022-09-09T08:21:28;12.55;;;2.60;;
51006;SDS011;37034;47.886;-3.904;2022-09-09T08:23:57;14.60;;;2.38;;
51006;SDS011;37034;47.886;-3.904;2022-09-09T08:26:28;16.95;;;2.53;;
51006;SDS011;37034;47.886;-3.904;2022-09-09T08:28:59;14.88;;;2.70;;
51006;SDS011;37034;47.886;-3.904;2022-09-09T08:31:34;10.73;;;1.50;;
51006;SDS011;37034;47.886;-3.904;2022-09-09T08:34:08;17.38;;;2.08;;
51006;SDS011;37034;47.886;-3.904;2022-09-09T08:36:35;14.05;;;2.00;;
51006;SDS011;37034;47.886;-3.904;2022-09-09T08:39:04;17.95;;;2.80;;
51006;SDS011;37034;47.886;-3.904;2022-09-09T08:52:36;15.75;;;2.83;;
51006;SDS011;37034;47.886;-3.904;2022-09-09T08:55:20;13.02;;;2.33;;
51006;SDS011;37034;47.886;-3.904;2022-09-09T08:57:52;18.05;;;2.72;;
51006;SDS011;37034;47.886;-3.904;2022-09-09T09:00:20;11.55;;;2.17;;
51006;SDS011;37034;47.886;-3.904;2022-09-09T09:05:41;10.18;;;1.70;;
51006;SDS011;37034;47.886;-3.904;2022-09-09T09:08:30;13.18;;;2.05;;
51006;SDS011;37034;47.886;-3.904;2022-09-09T09:11:08;16.07;;;2.40;;
51006;SDS011;37034;47.886;-3.904;2022-09-09T09:13:49;11.02;;;1.98;;
51006;SDS011;37034;47.886;-3.904;2022-09-09T09:19:14;20.92;;;3.10;;
51006;SDS011;37034;47.886;-3.904;2022-09-09T09:21:42;17.42;;;3.40;;
51006;SDS011;37034;47.886;-3.904;2022-09-09T09:24:19;12.15;;;2.00;;
51006;SDS011;37034;47.886;-3.904;2022-09-09T09:26:48;9.35;;;2.20;;
51006;SDS011;37034;47.886;-3.904;2022-09-09T09:29:16;11.43;;;1.70;;
51006;SDS011;37034;47.886;-3.904;2022-09-09T09:31:45;7.78;;;1.40;;
51006;SDS011;37034;47.886;-3.904;2022-09-09T09:34:22;8.88;;;1.55;;
51006;SDS011;37034;47.886;-3.904;2022-09-09T09:39:26;11.77;;;1.85;;
51006;SDS011;37034;47.886;-3.904;2022-09-09T09:41:54;10.23;;;1.70;;
51006;SDS011;37034;47.886;-3.904;2022-09-09T09:44:30;14.63;;;2.33;;
51006;SDS011;37034;47.886;-3.904;2022-09-09T09:49:33;13.77;;;2.58;;
51006;SDS011;37034;47.886;-3.904;2022-09-09T09:52:02;14.35;;;2.28;;
51006;SDS011;37034;47.886;-3.904;2022-09-09T09:54:29;16.42;;;2.75;;
51006;SDS011;37034;47.886;-3.904;2022-09-09T09:57:08;15.60;;;2.15;;
51006;SDS011;37034;47.886;-3.904;2022-09-09T09:59:39;11.13;;;1.85;;
51006;SDS011;37034;47.886;-3.904;2022-09-09T10:02:16;17.77;;;3.20;;
51006;SDS011;37034;47.886;-3.904;2022-09-09T10:05:04;12.63;;;2.13;;
51006;SDS011;37034;47.886;-3.904;2022-09-09T10:07:37;13.80;;;2.03;;
51006;SDS011;37034;47.886;-3.904;2022-09-09T10:10:04;12.98;;;2.35;;
51006;SDS011;37034;47.886;-3.904;2022-09-09T10:26:46;19.35;;;3.38;;
51006;SDS011;37034;47.886;-3.904;2022-09-09T10:32:28;17.38;;;2.67;;
51006;SDS011;37034;47.886;-3.904;2022-09-09T10:46:09;23.77;;;3.65;;
51006;SDS011;37034;47.886;-3.904;2022-09-09T10:48:48;15.18;;;2.90;;
51006;SDS011;37034;47.886;-3.904;2022-09-09T10:51:36;16.55;;;2.72;;
51006;SDS011;37034;47.886;-3.904;2022-09-09T10:57:05;15.88;;;2.85;;
51006;SDS011;37034;47.886;-3.904;2022-09-09T10:59:40;17.77;;;2.17;;
51006;SDS011;37034;47.886;-3.904;2022-09-09T11:02:19;21.33;;;2.75;;
51006;SDS011;37034;47.886;-3.904;2022-09-09T11:04:55;14.02;;;2.40;;
51006;SDS011;37034;47.886;-3.904;2022-09-09T11:07:37;18.00;;;2.47;;
51006;SDS011;37034;47.886;-3.904;2022-09-09T11:10:14;16.02;;;3.03;;
51006;SDS011;37034;47.886;-3.904;2022-09-09T11:12:51;18.08;;;2.42;;
51006;SDS011;37034;47.886;-3.904;2022-09-09T11:15:28;16.90;;;2.97;;
51006;SDS011;37034;47.886;-3.904;2022-09-09T11:18:02;16.23;;;3.03;;
51006;SDS011;37034;47.886;-3.904;2022-09-09T11:20:31;12.85;;;3.05;;
51006;SDS011;37034;47.886;-3.904;2022-09-09T11:25:39;13.80;;;3.53;;
51006;SDS011;37034;47.886;-3.904;2022-09-09T11:44:54;6.63;;;1.00;;
51006;SDS011;37034;47.886;-3.904;2022-09-09T11:47:29;8.32;;;1.80;;
51006;SDS011;37034;47.886;-3.904;2022-09-09T11:52:40;7.28;;;1.10;;
51006;SDS011;37034;47.886;-3.904;2022-09-09T11:55:30;6.25;;;1.50;;
51006;SDS011;37034;47.886;-3.904;2022-09-09T11:58:33;8.65;;;1.50;;
51006;SDS011;37034;47.886;-3.904;2022-09-09T12:00:53;9.68;;;1.42;;
51006;SDS011;37034;47.886;-3.904;2022-09-09T12:06:11;6.13;;;1.30;;
51006;SDS011;37034;47.886;-3.904;2022-09-09T12:08:46;9.30;;;1.58;;
51006;SDS011;37034;47.886;-3.904;2022-09-09T12:11:29;8.15;;;1.08;;
51006;SDS011;37034;47.886;-3.904;2022-09-09T12:13:56;6.68;;;1.20;;
51006;SDS011;37034;47.886;-3.904;2022-09-09T12:16:33;7.57;;;1.58;;
51006;SDS011;37034;47.886;-3.904;2022-09-09T12:19:33;6.35;;;1.00;;
51006;SDS011;37034;47.886;-3.904;2022-09-09T12:22:06;4.20;;;1.08;;
51006;SDS011;37034;47.886;-3.904;2022-09-09T12:25:03;3.92;;;1.00;;
51006;SDS011;37034;47.886;-3.904;2022-09-09T12:29:01;4.75;;;1.45;;
51006;SDS011;37034;47.886;-3.904;2022-09-09T12:31:16;5.28;;;1.00;;
51006;SDS011;37034;47.886;-3.904;2022-09-09T12:33:47;4.10;;;0.80;;
51006;SDS011;37034;47.886;-3.904;2022-09-09T12:36:16;4.28;;;0.98;;
51006;SDS011;37034;47.886;-3.904;2022-09-09T12:38:45;12.50;;;1.15;;
51006;SDS011;37034;47.886;-3.904;2022-09-09T12:41:22;5.95;;;1.33;;
51006;SDS011;37034;47.886;-3.904;2022-09-09T12:43:50;8.10;;;1.60;;
51006;SDS011;37034;47.886;-3.904;2022-09-09T12:46:38;9.73;;;1.67;;
51006;SDS011;37034;47.886;-3.904;2022-09-09T12:49:26;8.98;;;1.45;;
51006;SDS011;37034;47.886;-3.904;2022-09-09T12:52:03;6.13;;;1.25;;
51006;SDS011;37034;47.886;-3.904;2022-09-09T12:54:33;6.28;;;1.23;;
51006;SDS011;37034;47.886;-3.904;2022-09-09T12:57:00;10.55;;;1.70;;
51006;SDS011;37034;47.886;-3.904;2022-09-09T12:59:34;8.55;;;1.80;;
51006;SDS011;37034;47.886;-3.904;2022-09-09T13:02:02;5.97;;;1.48;;
51006;SDS011;37034;47.886;-3.904;2022-09-09T13:04:39;11.30;;;1.92;;
51006;SDS011;37034;47.886;-3.904;2022-09-09T13:07:05;9.20;;;1.40;;
51006;SDS011;37034;47.886;-3.904;2022-09-09T13:09:34;12.02;;;1.52;;
51006;SDS011;37034;47.886;-3.904;2022-09-09T13:12:00;6.65;;;1.20;;
51006;SDS011;37034;47.886;-3.904;2022-09-09T13:14:34;12.18;;;2.10;;
51006;SDS011;37034;47.886;-3.904;2022-09-09T13:17:05;7.57;;;1.67;;
51006;SDS011;37034;47.886;-3.904;2022-09-09T13:19:33;7.45;;;1.60;;
51006;SDS011;37034;47.886;-3.904;2022-09-09T13:22:14;8.68;;;1.85;;
51006;SDS011;37034;47.886;-3.904;2022-09-09T13:25:06;10.57;;;1.70;;
51006;SDS011;37034;47.886;-3.904;2022-09-09T13:28:03;8.50;;;1.48;;
51006;SDS011;37034;47.886;-3.904;2022-09-09T13:30:31;7.15;;;1.40;;
51006;SDS011;37034;47.886;-3.904;2022-09-09T13:35:27;13.52;;;1.65;;
51006;SDS011;37034;47.886;-3.904;2022-09-09T13:37:53;15.05;;;2.25;;
51006;SDS011;37034;47.886;-3.904;2022-09-09T13:40:22;13.55;;;2.50;;
51006;SDS011;37034;47.886;-3.904;2022-09-09T13:42:51;9.93;;;2.08;;
51006;SDS011;37034;47.886;-3.904;2022-09-09T13:45:21;12.32;;;2.47;;
51006;SDS011;37034;47.886;-3.904;2022-09-09T13:47:51;9.38;;;2.00;;
51006;SDS011;37034;47.886;-3.904;2022-09-09T13:50:24;11.63;;;1.98;;
51006;SDS011;37034;47.886;-3.904;2022-09-09T13:52:52;10.73;;;2.00;;
51006;SDS011;37034;47.886;-3.904;2022-09-09T13:55:20;8.13;;;1.63;;
51006;SDS011;37034;47.886;-3.904;2022-09-09T13:57:54;7.78;;;1.40;;
51006;SDS011;37034;47.886;-3.904;2022-09-09T14:00:21;7.35;;;1.52;;
51006;SDS011;37034;47.886;-3.904;2022-09-09T14:02:49;9.68;;;1.30;;
51006;SDS011;37034;47.886;-3.904;2022-09-09T14:05:16;8.63;;;1.35;;
51006;SDS011;37034;47.886;-3.904;2022-09-09T14:07:43;6.72;;;1.20;;
51006;SDS011;37034;47.886;-3.904;2022-09-09T14:10:09;7.35;;;1.27;;
51006;SDS011;37034;47.886;-3.904;2022-09-09T14:12:36;6.05;;;0.98;;
51006;SDS011;37034;47.886;-3.904;2022-09-09T14:15:03;5.18;;;1.20;;
51006;SDS011;37034;47.886;-3.904;2022-09-09T14:17:30;4.70;;;1.20;;
51006;SDS011;37034;47.886;-3.904;2022-09-09T14:19:56;6.38;;;1.27;;
51006;SDS011;37034;47.886;-3.904;2022-09-09T14:22:23;4.72;;;1.00;;
51006;SDS011;37034;47.886;-3.904;2022-09-09T14:24:49;7.97;;;1.00;;
51006;SDS011;37034;47.886;-3.904;2022-09-09T14:27:16;7.80;;;1.30;;
51006;SDS011;37034;47.886;-3.904;2022-09-09T14:29:42;8.27;;;1.17;;
51006;SDS011;37034;47.886;-3.904;2022-09-09T14:32:09;4.47;;;1.20;;
51006;SDS011;37034;47.886;-3.904;2022-09-09T14:34:35;8.15;;;1.50;;
51006;SDS011;37034;47.886;-3.904;2022-09-09T14:37:01;14.85;;;1.55;;
51006;SDS011;37034;47.886;-3.904;2022-09-09T14:39:27;7.45;;;1.10;;
51006;SDS011;37034;47.886;-3.904;2022-09-09T14:41:53;9.63;;;1.65;;
51006;SDS011;37034;47.886;-3.904;2022-09-09T14:44:18;8.38;;;1.88;;
51006;SDS011;37034;47.886;-3.904;2022-09-09T14:46:44;11.15;;;1.60;;
51006;SDS011;37034;47.886;-3.904;2022-09-09T14:49:10;5.82;;;1.30;;
51006;SDS011;37034;47.886;-3.904;2022-09-09T14:51:36;10.75;;;2.15;;
51006;SDS011;37034;47.886;-3.904;2022-09-09T14:54:02;12.05;;;1.98;;
51006;SDS011;37034;47.886;-3.904;2022-09-09T14:56:29;6.78;;;1.48;;
51006;SDS011;37034;47.886;-3.904;2022-09-09T14:58:57;7.80;;;1.40;;
51006;SDS011;37034;47.886;-3.904;2022-09-09T15:01:25;14.30;;;2.85;;
51006;SDS011;37034;47.886;-3.904;2022-09-09T15:03:55;11.20;;;1.75;;
51006;SDS011;37034;47.886;-3.904;2022-09-09T15:06:23;7.95;;;1.20;;
51006;SDS011;37034;47.886;-3.904;2022-09-09T15:08:50;15.35;;;2.45;;
51006;SDS011;37034;47.886;-3.904;2022-09-09T15:11:18;7.68;;;1.45;;
51006;SDS011;37034;47.886;-3.904;2022-09-09T15:13:45;9.23;;;1.13;;
51006;SDS011;37034;47.886;-3.904;2022-09-09T15:16:15;3.92;;;1.00;;
51006;SDS011;37034;47.886;-3.904;2022-09-09T15:18:42;5.25;;;0.80;;
51006;SDS011;37034;47.886;-3.904;2022-09-09T15:21:10;3.50;;;1.00;;
51006;SDS011;37034;47.886;-3.904;2022-09-09T15:23:37;8.45;;;1.20;;
51006;SDS011;37034;47.886;-3.904;2022-09-09T15:26:04;5.82;;;0.88;;
51006;SDS011;37034;47.886;-3.904;2022-09-09T15:28:33;4.97;;;0.90;;
51006;SDS011;37034;47.886;-3.904;2022-09-09T15:31:04;5.22;;;1.00;;
51006;SDS011;37034;47.886;-3.904;2022-09-09T15:33:39;4.78;;;0.73;;
51006;SDS011;37034;47.886;-3.904;2022-09-09T15:38:43;5.30;;;1.02;;
51006;SDS011;37034;47.886;-3.904;2022-09-09T15:41:09;4.05;;;0.80;;
51006;SDS011;37034;47.886;-3.904;2022-09-09T15:43:35;6.80;;;1.38;;
51006;SDS011;37034;47.886;-3.904;2022-09-09T15:46:05;6.88;;;1.10;;
51006;SDS011;37034;47.886;-3.904;2022-09-09T15:48:43;8.27;;;1.40;;
51006;SDS011;37034;47.886;-3.904;2022-09-09T15:51:09;3.65;;;0.80;;
51006;SDS011;37034;47.886;-3.904;2022-09-09T15:53:36;2.85;;;0.82;;
51006;SDS011;37034;47.886;-3.904;2022-09-09T15:56:04;6.90;;;0.88;;
51006;SDS011;37034;47.886;-3.904;2022-09-09T15:58:31;7.70;;;1.30;;
51006;SDS011;37034;47.886;-3.904;2022-09-09T16:01:04;7.68;;;1.80;;
51006;SDS011;37034;47.886;-3.904;2022-09-09T16:03:35;10.20;;;1.40;;
51006;SDS011;37034;47.886;-3.904;2022-09-09T16:06:11;7.78;;;1.27;;
51006;SDS011;37034;47.886;-3.904;2022-09-09T16:08:42;6.65;;;1.58;;
51006;SDS011;37034;47.886;-3.904;2022-09-09T16:13:37;8.10;;;1.42;;
51006;SDS011;37034;47.886;-3.904;2022-09-09T16:16:04;7.85;;;1.70;;
51006;SDS011;37034;47.886;-3.904;2022-09-09T16:18:35;9.20;;;2.28;;
51006;SDS011;37034;47.886;-3.904;2022-09-09T16:21:02;8.65;;;1.75;;
51006;SDS011;37034;47.886;-3.904;2022-09-09T16:23:30;9.45;;;1.67;;
51006;SDS011;37034;47.886;-3.904;2022-09-09T16:26:00;12.13;;;2.20;;
51006;SDS011;37034;47.886;-3.904;2022-09-09T16:28:26;10.77;;;1.80;;
51006;SDS011;37034;47.886;-3.904;2022-09-09T16:30:52;11.45;;;2.38;;
51006;SDS011;37034;47.886;-3.904;2022-09-09T16:33:18;11.95;;;1.92;;
51006;SDS011;37034;47.886;-3.904;2022-09-09T16:35:44;14.23;;;2.53;;
51006;SDS011;37034;47.886;-3.904;2022-09-09T16:38:10;13.27;;;2.35;;
51006;SDS011;37034;47.886;-3.904;2022-09-09T16:40:39;12.77;;;1.85;;
51006;SDS011;37034;47.886;-3.904;2022-09-09T16:43:06;13.52;;;2.60;;
51006;SDS011;37034;47.886;-3.904;2022-09-09T16:45:34;12.70;;;2.17;;
51006;SDS011;37034;47.886;-3.904;2022-09-09T16:48:09;9.65;;;2.47;;
51006;SDS011;37034;47.886;-3.904;2022-09-09T16:50:35;12.80;;;1.73;;
51006;SDS011;37034;47.886;-3.904;2022-09-09T16:53:00;14.32;;;1.80;;
51006;SDS011;37034;47.886;-3.904;2022-09-09T16:55:31;16.38;;;2.35;;
51006;SDS011;37034;47.886;-3.904;2022-09-09T16:57:57;9.90;;;2.05;;
51006;SDS011;37034;47.886;-3.904;2022-09-09T17:00:22;12.18;;;2.72;;
51006;SDS011;37034;47.886;-3.904;2022-09-09T17:02:48;10.90;;;2.35;;
51006;SDS011;37034;47.886;-3.904;2022-09-09T17:05:14;13.40;;;2.60;;